Time;durP1;ratioP1;P1;durP2;ratioP2;P2;SDS_P1;SDS_P2;PMS_P1;PMS_P2;Temp;Humidity;BMP_temperature;BMP_pressure;BME280_temperature;BME280_humidity;BME280_pressure;Samples;Min_cycle;Max_cycle;Signal;HPM_P1;HPM_P2
2022/03/09 00:00:15;;;;;;;17.05;10.18;;;;;;;;;;5036731;28;20017;-75
2022/03/09 00:02:41;;;;;;;13.40;8.43;;;;;;;;;;5033016;28;20052;-75
2022/03/09 00:05:08;;;;;;;14.93;8.20;;;;;;;;;;5039673;28;20044;-75
2022/03/09 00:07:34;;;;;;;18.23;9.02;;;;;;;;;;5036766;28;20029;-75
2022/03/09 00:10:01;;;;;;;11.77;8.20;;;;;;;;;;5037230;28;20025;-75
2022/03/09 00:12:27;;;;;;;13.07;8.23;;;;;;;;;;5019793;28;20036;-75
2022/03/09 00:14:54;;;;;;;15.13;9.30;;;;;;;;;;5033585;28;20026;-75
2022/03/09 00:17:20;;;;;;;17.40;8.98;;;;;;;;;;5037609;28;20030;-75
2022/03/09 00:19:46;;;;;;;17.60;9.70;;;;;;;;;;5038053;28;20033;-75
2022/03/09 00:22:13;;;;;;;16.85;9.45;;;;;;;;;;5037277;28;20024;-75
2022/03/09 00:24:39;;;;;;;16.40;9.32;;;;;;;;;;5036838;28;20506;-75
2022/03/09 00:27:06;;;;;;;19.95;10.85;;;;;;;;;;5033750;28;20388;-75
2022/03/09 00:29:32;;;;;;;20.88;11.00;;;;;;;;;;5035429;28;20017;-75
2022/03/09 00:31:59;;;;;;;19.05;11.18;;;;;;;;;;5039057;28;20032;-75
2022/03/09 00:34:25;;;;;;;19.33;10.50;;;;;;;;;;5035687;28;20037;-75
2022/03/09 00:36:51;;;;;;;22.98;11.32;;;;;;;;;;5035684;28;20014;-75
2022/03/09 00:39:18;;;;;;;16.50;10.10;;;;;;;;;;5036047;28;20028;-75
2022/03/09 00:41:44;;;;;;;22.70;10.38;;;;;;;;;;5033186;28;20051;-75
2022/03/09 00:44:10;;;;;;;16.85;10.43;;;;;;;;;;5038915;28;20040;-75
2022/03/09 00:46:37;;;;;;;21.88;10.65;;;;;;;;;;5036686;28;20018;-74
2022/03/09 00:49:03;;;;;;;21.83;11.10;;;;;;;;;;5037160;28;20059;-75
2022/03/09 00:51:30;;;;;;;14.27;10.23;;;;;;;;;;5036744;28;20047;-75
2022/03/09 00:53:56;;;;;;;16.92;9.70;;;;;;;;;;5032745;28;20100;-75
2022/03/09 00:56:22;;;;;;;15.38;9.15;;;;;;;;;;5037610;28;20394;-76
2022/03/09 00:58:49;;;;;;;19.92;9.52;;;;;;;;;;5035664;28;20036;-75
2022/03/09 01:01:15;;;;;;;14.45;8.60;;;;;;;;;;5036431;28;20045;-75
2022/03/09 01:03:42;;;;;;;14.13;8.50;;;;;;;;;;5035747;28;20043;-75
2022/03/09 01:06:08;;;;;;;17.90;9.60;;;;;;;;;;5034575;28;20029;-75
2022/03/09 01:08:35;;;;;;;15.68;9.75;;;;;;;;;;5033817;28;20496;-75
2022/03/09 01:11:01;;;;;;;14.98;10.75;;;;;;;;;;5068756;28;20044;-75
2022/03/09 01:13:28;;;;;;;15.77;10.20;;;;;;;;;;5034669;28;20038;-74
2022/03/09 01:15:54;;;;;;;18.05;11.27;;;;;;;;;;5035182;28;20037;-75
2022/03/09 01:18:21;;;;;;;20.80;11.52;;;;;;;;;;5035928;28;20398;-75
2022/03/09 01:20:47;;;;;;;22.05;11.43;;;;;;;;;;5032143;28;20022;-75
2022/03/09 01:23:13;;;;;;;17.20;10.65;;;;;;;;;;5069855;28;20502;-75
2022/03/09 01:25:39;;;;;;;15.27;9.35;;;;;;;;;;5068386;28;20033;-75
2022/03/09 01:28:06;;;;;;;16.50;9.07;;;;;;;;;;5035974;28;20506;-75
2022/03/09 01:30:32;;;;;;;12.65;8.30;;;;;;;;;;5034823;28;20029;-75
2022/03/09 01:32:58;;;;;;;16.60;8.55;;;;;;;;;;5032741;28;20025;-75
2022/03/09 01:35:25;;;;;;;14.80;8.30;;;;;;;;;;5036526;28;20018;-75
2022/03/09 01:37:51;;;;;;;17.98;8.93;;;;;;;;;;5036226;28;20482;-75
2022/03/09 01:40:18;;;;;;;13.85;8.38;;;;;;;;;;5034570;28;20046;-75
2022/03/09 01:42:44;;;;;;;16.50;9.10;;;;;;;;;;5035727;28;20033;-75
2022/03/09 01:45:12;;;;;;;14.38;8.15;;;;;;;;;;5034081;28;20043;-75
2022/03/09 01:47:38;;;;;;;14.50;8.18;;;;;;;;;;5032900;28;20020;-75
2022/03/09 01:50:08;;;;;;;13.27;7.68;;;;;;;;;;5037525;28;20056;-75
2022/03/09 01:52:35;;;;;;;13.40;7.95;;;;;;;;;;5034165;28;20014;-75
2022/03/09 01:55:02;;;;;;;13.80;8.07;;;;;;;;;;5034106;28;20029;-75
2022/03/09 01:57:29;;;;;;;13.32;9.07;;;;;;;;;;5035547;28;20021;-75
2022/03/09 01:59:56;;;;;;;14.80;8.80;;;;;;;;;;5031767;28;20529;-75
2022/03/09 02:02:22;;;;;;;15.77;9.13;;;;;;;;;;5036305;28;20022;-76
2022/03/09 02:04:49;;;;;;;15.18;9.65;;;;;;;;;;5065998;28;20498;-75
2022/03/09 02:07:15;;;;;;;18.50;9.40;;;;;;;;;;5035341;28;20030;-75
2022/03/09 02:09:42;;;;;;;12.38;9.15;;;;;;;;;;5035266;28;20033;-75
2022/03/09 02:12:12;;;;;;;14.68;8.68;;;;;;;;;;5033454;28;20018;-75
2022/03/09 02:14:46;;;;;;;16.45;10.65;;;;;;;;;;5032353;28;20030;-75
2022/03/09 02:17:16;;;;;;;18.23;10.18;;;;;;;;;;5037154;28;20067;-75
2022/03/09 02:19:44;;;;;;;18.08;9.90;;;;;;;;;;5034999;28;20021;-75
2022/03/09 02:22:20;;;;;;;16.40;10.07;;;;;;;;;;5035362;28;20017;-75
2022/03/09 02:24:50;;;;;;;19.20;9.80;;;;;;;;;;5034935;28;20033;-75
2022/03/09 02:27:17;;;;;;;21.45;11.68;;;;;;;;;;5034463;28;20029;-75
2022/03/09 02:29:44;;;;;;;20.92;10.90;;;;;;;;;;5030996;28;20041;-75
2022/03/09 02:32:11;;;;;;;20.25;11.90;;;;;;;;;;5035960;28;20026;-75
2022/03/09 02:34:37;;;;;;;17.80;10.77;;;;;;;;;;5033013;28;20532;-75
2022/03/09 02:37:04;;;;;;;18.58;10.60;;;;;;;;;;5034932;28;20028;-75
2022/03/09 02:39:30;;;;;;;17.45;10.02;;;;;;;;;;5033794;28;20035;-75
2022/03/09 02:41:57;;;;;;;16.38;10.45;;;;;;;;;;5031226;28;20044;-75
2022/03/09 02:44:23;;;;;;;18.63;9.90;;;;;;;;;;5035285;28;20036;-75
2022/03/09 02:46:49;;;;;;;18.48;9.23;;;;;;;;;;5035404;28;20024;-75
2022/03/09 02:49:16;;;;;;;19.25;10.38;;;;;;;;;;5034316;28;20025;-75
2022/03/09 02:51:42;;;;;;;14.20;9.50;;;;;;;;;;5017288;28;20025;-75
2022/03/09 02:54:09;;;;;;;16.02;11.00;;;;;;;;;;5032699;28;20032;-75
2022/03/09 02:56:36;;;;;;;20.88;9.85;;;;;;;;;;5031973;28;20397;-75
2022/03/09 02:59:02;;;;;;;19.90;11.38;;;;;;;;;;5036502;28;20397;-75
2022/03/09 03:01:29;;;;;;;17.55;9.10;;;;;;;;;;5034330;28;20025;-75
2022/03/09 03:03:55;;;;;;;15.85;10.95;;;;;;;;;;5032920;28;20037;-75
2022/03/09 03:06:22;;;;;;;19.23;10.70;;;;;;;;;;5034615;28;20017;-75
2022/03/09 03:08:48;;;;;;;16.02;10.20;;;;;;;;;;5030295;28;20390;-75
2022/03/09 03:11:15;;;;;;;16.73;10.68;;;;;;;;;;5036277;28;20471;-75
2022/03/09 03:13:41;;;;;;;18.13;10.52;;;;;;;;;;5033179;28;20026;-75
2022/03/09 03:16:09;;;;;;;18.77;11.02;;;;;;;;;;5034275;28;20025;-75
2022/03/09 03:18:35;;;;;;;19.83;10.65;;;;;;;;;;5033945;28;20031;-75
2022/03/09 03:21:01;;;;;;;14.10;10.15;;;;;;;;;;5031585;28;20440;-75
2022/03/09 03:23:29;;;;;;;15.25;9.15;;;;;;;;;;5033554;28;20025;-75
2022/03/09 03:25:55;;;;;;;13.63;8.82;;;;;;;;;;5037260;28;20047;-75
2022/03/09 03:28:22;;;;;;;14.82;8.77;;;;;;;;;;5038466;28;20043;-75
2022/03/09 03:30:49;;;;;;;13.73;9.68;;;;;;;;;;5038232;28;20490;-75
2022/03/09 03:33:16;;;;;;;19.10;8.68;;;;;;;;;;5037014;28;20472;-75
2022/03/09 03:35:43;;;;;;;16.55;10.43;;;;;;;;;;5034954;28;20064;-75
2022/03/09 03:38:10;;;;;;;21.58;10.93;;;;;;;;;;5040031;28;20021;-75
2022/03/09 03:40:37;;;;;;;21.15;10.38;;;;;;;;;;5037969;28;20044;-75
2022/03/09 03:43:04;;;;;;;15.55;10.60;;;;;;;;;;5038239;28;20043;-75
2022/03/09 03:45:30;;;;;;;16.98;10.40;;;;;;;;;;5037970;28;20029;-75
2022/03/09 03:47:57;;;;;;;16.48;9.68;;;;;;;;;;5032796;28;20018;-75
2022/03/09 03:50:23;;;;;;;15.85;10.27;;;;;;;;;;5038483;28;20507;-75
2022/03/09 03:52:50;;;;;;;15.25;10.00;;;;;;;;;;5035908;28;20482;-75
2022/03/09 03:55:16;;;;;;;16.20;10.73;;;;;;;;;;5037891;28;20410;-75
2022/03/09 03:57:43;;;;;;;15.57;10.52;;;;;;;;;;5037837;28;20021;-75
2022/03/09 04:00:10;;;;;;;14.70;10.05;;;;;;;;;;5034907;28;20608;-75
2022/03/09 04:02:37;;;;;;;14.60;9.30;;;;;;;;;;5034395;28;20017;-75
2022/03/09 04:05:05;;;;;;;16.40;10.77;;;;;;;;;;5039647;28;20417;-75
2022/03/09 04:07:31;;;;;;;17.80;10.50;;;;;;;;;;5037643;28;20009;-75
2022/03/09 04:09:57;;;;;;;18.55;10.98;;;;;;;;;;5036351;28;20051;-75
2022/03/09 04:12:24;;;;;;;20.98;11.85;;;;;;;;;;5037851;28;20029;-75
2022/03/09 04:14:51;;;;;;;17.33;11.00;;;;;;;;;;5033387;28;20025;-75
2022/03/09 04:17:17;;;;;;;19.88;11.48;;;;;;;;;;5050515;28;20337;-75
2022/03/09 04:19:43;;;;;;;17.95;11.23;;;;;;;;;;5037659;28;20018;-75
2022/03/09 04:22:10;;;;;;;21.80;10.73;;;;;;;;;;5043812;28;20482;-75
2022/03/09 04:24:36;;;;;;;16.52;10.85;;;;;;;;;;5046565;28;20045;-75
2022/03/09 04:27:03;;;;;;;25.70;14.95;;;;;;;;;;5033203;28;20079;-75
2022/03/09 04:29:30;;;;;;;24.33;14.00;;;;;;;;;;5036090;28;20041;-75
2022/03/09 04:31:56;;;;;;;27.02;13.60;;;;;;;;;;5036588;28;20375;-75
2022/03/09 04:34:22;;;;;;;19.27;11.75;;;;;;;;;;5037211;28;20022;-75
2022/03/09 04:36:49;;;;;;;19.20;11.93;;;;;;;;;;5036948;28;20393;-75
2022/03/09 04:39:15;;;;;;;24.13;12.27;;;;;;;;;;5036119;28;20403;-75
2022/03/09 04:41:42;;;;;;;23.63;13.25;;;;;;;;;;5033416;28;20100;-75
2022/03/09 04:44:08;;;;;;;22.77;13.98;;;;;;;;;;5038582;28;20099;-74
2022/03/09 04:46:36;;;;;;;25.10;13.98;;;;;;;;;;5035583;28;20544;-75
2022/03/09 04:49:02;;;;;;;22.15;12.88;;;;;;;;;;5037028;28;20394;-75
2022/03/09 04:51:29;;;;;;;23.77;13.52;;;;;;;;;;5036785;28;20058;-75
2022/03/09 04:53:55;;;;;;;23.10;13.55;;;;;;;;;;5033148;28;20021;-75
2022/03/09 04:56:21;;;;;;;17.27;11.65;;;;;;;;;;5036402;28;20025;-75
2022/03/09 04:58:48;;;;;;;19.77;11.40;;;;;;;;;;5037033;28;20022;-76
2022/03/09 05:01:14;;;;;;;19.48;11.88;;;;;;;;;;5036810;28;20028;-75
2022/03/09 05:03:40;;;;;;;20.13;11.88;;;;;;;;;;5036675;28;20021;-75
2022/03/09 05:06:07;;;;;;;17.40;10.38;;;;;;;;;;5032105;28;20038;-75
2022/03/09 05:08:34;;;;;;;16.10;10.35;;;;;;;;;;5035100;28;20092;-75
2022/03/09 05:11:00;;;;;;;16.90;11.73;;;;;;;;;;5036573;28;20041;-75
2022/03/09 05:13:27;;;;;;;19.73;11.27;;;;;;;;;;5036109;28;20573;-75
2022/03/09 05:15:53;;;;;;;19.35;10.60;;;;;;;;;;5036550;28;20441;-75
2022/03/09 05:18:20;;;;;;;20.05;10.27;;;;;;;;;;5036001;28;20023;-75
2022/03/09 05:20:47;;;;;;;21.35;9.85;;;;;;;;;;5032227;28;20379;-75
2022/03/09 05:23:13;;;;;;;16.10;10.35;;;;;;;;;;5038024;28;20029;-75
2022/03/09 05:25:40;;;;;;;16.65;10.45;;;;;;;;;;5036180;28;20037;-75
2022/03/09 05:28:06;;;;;;;16.50;10.23;;;;;;;;;;5035700;28;20433;-75
2022/03/09 05:30:33;;;;;;;16.70;10.82;;;;;;;;;;5036065;28;20440;-75
2022/03/09 05:32:59;;;;;;;17.25;10.52;;;;;;;;;;5033183;28;20028;-75
2022/03/09 05:35:25;;;;;;;18.67;12.25;;;;;;;;;;5035935;28;20082;-74
2022/03/09 05:37:52;;;;;;;20.70;11.75;;;;;;;;;;5036716;28;20032;-74
2022/03/09 05:40:18;;;;;;;16.88;10.75;;;;;;;;;;5035807;28;20049;-75
2022/03/09 05:42:45;;;;;;;18.90;11.13;;;;;;;;;;5035488;28;20032;-75
2022/03/09 05:45:12;;;;;;;17.13;10.98;;;;;;;;;;5032843;28;20051;-75
2022/03/09 05:47:38;;;;;;;14.63;10.82;;;;;;;;;;5032721;28;20498;-75
2022/03/09 05:50:05;;;;;;;20.58;9.95;;;;;;;;;;5035903;28;20398;-75
2022/03/09 05:52:31;;;;;;;18.65;9.93;;;;;;;;;;5035866;28;20029;-75
2022/03/09 05:54:58;;;;;;;21.73;10.85;;;;;;;;;;5035601;28;20021;-75
2022/03/09 05:57:24;;;;;;;18.15;10.35;;;;;;;;;;5035317;28;20025;-75
2022/03/09 05:59:51;;;;;;;17.35;10.20;;;;;;;;;;5031399;28;20072;-74
2022/03/09 06:02:17;;;;;;;17.55;10.13;;;;;;;;;;5048913;28;20025;-75
2022/03/09 06:04:45;;;;;;;18.23;10.98;;;;;;;;;;5035762;28;20033;-75
2022/03/09 06:07:11;;;;;;;15.10;10.50;;;;;;;;;;5034204;28;20418;-75
2022/03/09 06:09:38;;;;;;;14.65;10.50;;;;;;;;;;5035377;28;20039;-75
2022/03/09 06:12:05;;;;;;;18.83;10.95;;;;;;;;;;5032590;28;20505;-75
2022/03/09 06:14:31;;;;;;;18.98;11.15;;;;;;;;;;5034336;28;20029;-75
2022/03/09 06:16:57;;;;;;;17.75;10.57;;;;;;;;;;5036669;28;20028;-75
2022/03/09 06:19:24;;;;;;;14.75;9.75;;;;;;;;;;5035275;28;20032;-75
2022/03/09 06:21:50;;;;;;;17.60;10.68;;;;;;;;;;5035162;28;20022;-75
2022/03/09 06:24:18;;;;;;;18.60;10.32;;;;;;;;;;5032950;28;20021;-75
2022/03/09 06:26:47;;;;;;;16.20;10.55;;;;;;;;;;5030712;28;20044;-75
2022/03/09 06:29:13;;;;;;;17.33;11.65;;;;;;;;;;5035667;28;20021;-75
2022/03/09 06:31:42;;;;;;;20.42;10.45;;;;;;;;;;5035106;28;20386;-75
2022/03/09 06:34:08;;;;;;;20.25;11.20;;;;;;;;;;5035031;28;20029;-75
2022/03/09 06:36:35;;;;;;;17.95;10.70;;;;;;;;;;5033893;28;20037;-75
2022/03/09 06:39:01;;;;;;;20.65;12.35;;;;;;;;;;5032236;28;20109;-75
2022/03/09 06:41:27;;;;;;;19.67;11.95;;;;;;;;;;5032814;28;20402;-75
2022/03/09 06:43:54;;;;;;;21.35;12.15;;;;;;;;;;5035593;28;20037;-75
2022/03/09 06:46:22;;;;;;;20.90;11.95;;;;;;;;;;5034640;28;20440;-75
2022/03/09 06:48:48;;;;;;;22.38;11.82;;;;;;;;;;5034722;28;20191;-75
2022/03/09 06:51:15;;;;;;;20.02;11.98;;;;;;;;;;5033601;28;20013;-75
2022/03/09 06:53:42;;;;;;;19.50;11.95;;;;;;;;;;5031639;28;20045;-75
2022/03/09 06:56:08;;;;;;;18.58;11.05;;;;;;;;;;5038979;28;20024;-75
2022/03/09 06:58:35;;;;;;;19.73;12.55;;;;;;;;;;5037516;28;20031;-75
2022/03/09 07:01:01;;;;;;;18.58;11.57;;;;;;;;;;5038975;28;20053;-75
2022/03/09 07:03:28;;;;;;;20.88;12.00;;;;;;;;;;5032877;28;20025;-75
2022/03/09 07:05:54;;;;;;;19.35;11.05;;;;;;;;;;5036980;28;20045;-75
2022/03/09 07:08:20;;;;;;;23.20;13.65;;;;;;;;;;5045502;28;20021;-75
2022/03/09 07:10:47;;;;;;;16.92;11.95;;;;;;;;;;5043979;28;20090;-75
2022/03/09 07:13:13;;;;;;;18.70;12.52;;;;;;;;;;5039238;28;20009;-76
2022/03/09 07:15:40;;;;;;;38.88;22.25;;;;;;;;;;5042759;28;20497;-75
2022/03/09 07:18:06;;;;;;;25.83;14.48;;;;;;;;;;5031828;28;20037;-75
2022/03/09 07:20:32;;;;;;;19.25;12.30;;;;;;;;;;5032601;28;20025;-75
2022/03/09 07:22:59;;;;;;;21.88;14.45;;;;;;;;;;5035900;28;20029;-75
2022/03/09 07:25:25;;;;;;;19.25;13.32;;;;;;;;;;5065863;28;20041;-75
2022/03/09 07:27:52;;;;;;;48.25;33.08;;;;;;;;;;5043077;28;20029;-75
2022/03/09 07:30:18;;;;;;;24.02;14.55;;;;;;;;;;5045547;28;20078;-75
2022/03/09 07:32:44;;;;;;;26.67;15.30;;;;;;;;;;5030795;28;20032;-75
2022/03/09 07:35:11;;;;;;;20.60;12.70;;;;;;;;;;5046184;28;20033;-76
2022/03/09 07:37:38;;;;;;;26.58;13.30;;;;;;;;;;5033991;28;20014;-75
2022/03/09 07:40:08;;;;;;;26.83;13.73;;;;;;;;;;5033622;28;20037;-75
2022/03/09 07:42:34;;;;;;;20.15;12.15;;;;;;;;;;5027603;28;20024;-76
2022/03/09 07:45:01;;;;;;;19.55;12.15;;;;;;;;;;5043502;28;20034;-75
2022/03/09 07:47:27;;;;;;;16.23;10.93;;;;;;;;;;5045964;28;20029;-75
2022/03/09 07:49:54;;;;;;;16.85;11.18;;;;;;;;;;5034649;28;20029;-76
2022/03/09 07:52:20;;;;;;;17.83;10.55;;;;;;;;;;5033630;28;20022;-76
2022/03/09 07:54:46;;;;;;;15.93;10.20;;;;;;;;;;5033228;28;20049;-76
2022/03/09 07:57:13;;;;;;;15.80;10.50;;;;;;;;;;5032804;28;20013;-75
2022/03/09 07:59:39;;;;;;;14.35;8.90;;;;;;;;;;5030169;28;20104;-75
2022/03/09 08:02:07;;;;;;;13.43;8.65;;;;;;;;;;5039214;28;20020;-76
2022/03/09 08:04:34;;;;;;;11.88;8.02;;;;;;;;;;5038571;28;20031;-76
2022/03/09 08:07:01;;;;;;;12.75;8.65;;;;;;;;;;5039624;28;20025;-76
2022/03/09 08:09:28;;;;;;;11.50;7.20;;;;;;;;;;5030016;28;20033;-76
2022/03/09 08:11:54;;;;;;;11.73;8.00;;;;;;;;;;5041464;28;20021;-76
2022/03/09 08:14:21;;;;;;;12.88;8.15;;;;;;;;;;5050394;28;20060;-76
2022/03/09 08:16:48;;;;;;;10.32;7.20;;;;;;;;;;5031866;28;20037;-76
2022/03/09 08:19:15;;;;;;;12.73;7.47;;;;;;;;;;5034698;28;20021;-74
2022/03/09 08:21:41;;;;;;;13.73;7.38;;;;;;;;;;5039977;28;20040;-75
2022/03/09 08:24:08;;;;;;;11.80;7.05;;;;;;;;;;5030843;28;20034;-76
2022/03/09 08:26:34;;;;;;;10.88;7.70;;;;;;;;;;5036490;28;20025;-76
2022/03/09 08:29:00;;;;;;;11.98;7.03;;;;;;;;;;5046997;28;20045;-77
2022/03/09 08:31:27;;;;;;;10.35;6.53;;;;;;;;;;5041532;28;20043;-77
2022/03/09 08:33:55;;;;;;;7.68;5.85;;;;;;;;;;5043780;28;20018;-76
2022/03/09 08:36:22;;;;;;;8.57;6.32;;;;;;;;;;5035941;28;20417;-77
2022/03/09 08:38:48;;;;;;;7.95;6.50;;;;;;;;;;5035237;28;20449;-77
2022/03/09 08:41:15;;;;;;;9.88;6.30;;;;;;;;;;5037871;28;20427;-76
2022/03/09 08:43:43;;;;;;;7.90;6.45;;;;;;;;;;5060652;28;20026;-77
2022/03/09 08:46:11;;;;;;;11.13;7.10;;;;;;;;;;5035478;28;20035;-77
2022/03/09 08:48:38;;;;;;;9.20;6.03;;;;;;;;;;5042164;28;20051;-77
2022/03/09 08:51:05;;;;;;;8.13;6.63;;;;;;;;;;5033984;28;20506;-76
2022/03/09 08:53:32;;;;;;;7.72;6.32;;;;;;;;;;5043793;28;20029;-76
2022/03/09 08:55:58;;;;;;;6.90;5.50;;;;;;;;;;5048466;28;20402;-76
2022/03/09 08:58:25;;;;;;;9.30;6.25;;;;;;;;;;5038482;28;20401;-75
2022/03/09 09:00:51;;;;;;;8.35;6.85;;;;;;;;;;5038920;28;20025;-77
2022/03/09 09:03:17;;;;;;;8.80;7.25;;;;;;;;;;5037763;28;20033;-77
2022/03/09 09:05:44;;;;;;;9.23;7.55;;;;;;;;;;5039184;28;20046;-76
2022/03/09 09:08:10;;;;;;;12.25;7.53;;;;;;;;;;5044962;28;20032;-77
2022/03/09 09:10:36;;;;;;;10.55;7.85;;;;;;;;;;5040896;28;20037;-77
2022/03/09 09:13:03;;;;;;;10.13;7.53;;;;;;;;;;5043042;28;20035;-77
2022/03/09 09:15:30;;;;;;;10.32;7.15;;;;;;;;;;5041572;28;20800;-77
2022/03/09 09:17:57;;;;;;;9.82;7.63;;;;;;;;;;5033126;28;20038;-77
2022/03/09 09:20:25;;;;;;;11.77;8.02;;;;;;;;;;5044850;28;20032;-77
2022/03/09 09:22:56;;;;;;;10.30;7.45;;;;;;;;;;5033034;28;20033;-77
2022/03/09 09:25:26;;;;;;;8.07;7.10;;;;;;;;;;5034899;28;20032;-77
2022/03/09 09:27:53;;;;;;;11.10;7.35;;;;;;;;;;5034050;28;20033;-77
2022/03/09 09:30:20;;;;;;;11.85;7.40;;;;;;;;;;5034097;28;20050;-77
2022/03/09 09:32:47;;;;;;;9.65;7.35;;;;;;;;;;5030678;28;20017;-77
2022/03/09 09:35:14;;;;;;;10.80;8.18;;;;;;;;;;5035933;28;20056;-77
2022/03/09 09:37:41;;;;;;;16.27;8.27;;;;;;;;;;5033958;28;20032;-77
2022/03/09 09:40:09;;;;;;;10.95;7.20;;;;;;;;;;5032670;28;20068;-76
2022/03/09 09:42:36;;;;;;;10.13;7.82;;;;;;;;;;5036287;28;20037;-77
2022/03/09 09:45:04;;;;;;;13.00;7.60;;;;;;;;;;5040002;28;20417;-77
2022/03/09 09:47:31;;;;;;;12.52;8.27;;;;;;;;;;5031949;28;20043;-76
2022/03/09 09:49:57;;;;;;;12.82;8.48;;;;;;;;;;5034693;28;20068;-77
2022/03/09 09:52:27;;;;;;;11.68;7.90;;;;;;;;;;5028496;28;20036;-75
2022/03/09 09:54:54;;;;;;;12.90;8.55;;;;;;;;;;5033952;28;20020;-75
2022/03/09 09:57:21;;;;;;;13.35;8.38;;;;;;;;;;5029599;28;20036;-76
2022/03/09 09:59:47;;;;;;;10.98;7.47;;;;;;;;;;5031509;28;20495;-76
2022/03/09 10:02:14;;;;;;;12.27;8.40;;;;;;;;;;5035392;28;20026;-77
2022/03/09 10:04:40;;;;;;;14.52;8.98;;;;;;;;;;5034101;28;20072;-75
2022/03/09 10:07:07;;;;;;;13.93;9.63;;;;;;;;;;5041139;28;20031;-75
2022/03/09 10:09:40;;;;;;;13.55;9.32;;;;;;;;;;5041771;28;20024;-76
2022/03/09 10:12:08;;;;;;;16.40;10.15;;;;;;;;;;5039254;28;20270;-76
2022/03/09 10:14:44;;;;;;;15.85;9.45;;;;;;;;;;5031303;28;20029;-77
2022/03/09 10:17:30;;;;;;;16.83;10.13;;;;;;;;;;5045999;28;20021;-76
2022/03/09 10:20:00;;;;;;;16.95;10.02;;;;;;;;;;5037916;28;20086;-75
2022/03/09 10:22:46;;;;;;;18.15;9.88;;;;;;;;;;5035795;28;20520;-76
2022/03/09 10:25:13;;;;;;;16.48;10.45;;;;;;;;;;5031951;28;20495;-75
2022/03/09 10:27:39;;;;;;;17.83;10.70;;;;;;;;;;5032517;28;20025;-76
2022/03/09 10:30:08;;;;;;;15.27;10.25;;;;;;;;;;5030916;28;20735;-76
2022/03/09 10:32:48;;;;;;;14.68;10.32;;;;;;;;;;5030887;28;20032;-76
2022/03/09 10:35:16;;;;;;;13.98;10.10;;;;;;;;;;5037786;28;20028;-77
2022/03/09 10:37:43;;;;;;;19.25;10.63;;;;;;;;;;5039733;28;20040;-77
2022/03/09 10:40:12;;;;;;;14.95;9.88;;;;;;;;;;5032177;28;20033;-76
2022/03/09 10:42:39;;;;;;;12.90;9.65;;;;;;;;;;5032887;28;20032;-76
2022/03/09 10:45:07;;;;;;;13.10;8.30;;;;;;;;;;5030626;28;20032;-76
2022/03/09 10:47:35;;;;;;;14.70;9.25;;;;;;;;;;5031640;28;20036;-76
2022/03/09 10:50:11;;;;;;;11.63;8.90;;;;;;;;;;5030131;28;20044;-77
2022/03/09 10:52:50;;;;;;;15.18;8.63;;;;;;;;;;5032315;28;20028;-76
2022/03/09 10:55:33;;;;;;;17.75;8.60;;;;;;;;;;5033315;28;20083;-76
2022/03/09 10:58:07;;;;;;;13.60;8.85;;;;;;;;;;5033657;28;20021;-76
2022/03/09 11:00:40;;;;;;;13.85;8.80;;;;;;;;;;5041249;28;20021;-76
2022/03/09 11:03:07;;;;;;;12.93;8.93;;;;;;;;;;5028709;28;20030;-76
2022/03/09 11:05:34;;;;;;;13.35;8.45;;;;;;;;;;5044550;28;20047;-76
2022/03/09 11:08:02;;;;;;;16.50;8.90;;;;;;;;;;5034820;28;20017;-76
2022/03/09 11:10:29;;;;;;;10.80;7.88;;;;;;;;;;5033256;28;20028;-76
2022/03/09 11:12:56;;;;;;;11.20;8.23;;;;;;;;;;5038742;28;20386;-77
2022/03/09 11:15:23;;;;;;;15.88;8.88;;;;;;;;;;5032913;28;20025;-76
2022/03/09 11:17:49;;;;;;;15.10;8.80;;;;;;;;;;5028836;28;20521;-77
2022/03/09 11:20:16;;;;;;;14.65;8.05;;;;;;;;;;5035570;28;20029;-76
2022/03/09 11:22:43;;;;;;;13.38;8.30;;;;;;;;;;5033460;28;20103;-75
2022/03/09 11:25:10;;;;;;;11.50;8.07;;;;;;;;;;5033630;28;20029;-77
2022/03/09 11:27:44;;;;;;;12.50;7.38;;;;;;;;;;5031831;28;20058;-77
2022/03/09 11:30:26;;;;;;;13.30;8.00;;;;;;;;;;5030862;28;20039;-76
2022/03/09 11:32:55;;;;;;;9.82;7.40;;;;;;;;;;5013406;28;20390;-77
2022/03/09 11:35:35;;;;;;;12.70;7.60;;;;;;;;;;5033943;28;20024;-76
2022/03/09 11:38:02;;;;;;;9.82;6.63;;;;;;;;;;5035067;28;20033;-77
2022/03/09 11:40:29;;;;;;;9.65;6.85;;;;;;;;;;5030289;28;20045;-77
2022/03/09 11:42:56;;;;;;;10.02;6.95;;;;;;;;;;5033239;28;20025;-77
2022/03/09 11:45:30;;;;;;;13.23;7.05;;;;;;;;;;5031966;28;20039;-77
2022/03/09 11:48:07;;;;;;;13.95;6.30;;;;;;;;;;5017351;28;20035;-77
2022/03/09 11:51:01;;;;;;;9.75;6.68;;;;;;;;;;5035818;28;20449;-77
2022/03/09 11:53:40;;;;;;;9.60;6.28;;;;;;;;;;5045856;28;20041;-77
2022/03/09 11:56:21;;;;;;;10.73;6.80;;;;;;;;;;5039654;28;20033;-76
2022/03/09 11:59:06;;;;;;;10.35;6.00;;;;;;;;;;5036024;28;20490;-77
2022/03/09 12:01:32;;;;;;;8.43;6.30;;;;;;;;;;5035959;28;20029;-76
2022/03/09 12:03:59;;;;;;;10.73;5.95;;;;;;;;;;5037462;28;20021;-77
2022/03/09 12:06:41;;;;;;;7.00;5.25;;;;;;;;;;5037574;28;20444;-76
2022/03/09 12:09:09;;;;;;;8.73;5.28;;;;;;;;;;5021734;28;20024;-77
2022/03/09 12:11:54;;;;;;;6.53;5.28;;;;;;;;;;5035744;28;20021;-77
2022/03/09 12:14:40;;;;;;;8.60;5.20;;;;;;;;;;5046633;28;20024;-77
2022/03/09 12:17:07;;;;;;;8.75;5.57;;;;;;;;;;5036557;28;20033;-76
2022/03/09 12:19:33;;;;;;;6.53;5.15;;;;;;;;;;5036063;28;20029;-77
2022/03/09 12:22:03;;;;;;;7.43;5.63;;;;;;;;;;5037222;28;20043;-77
2022/03/09 12:24:33;;;;;;;7.80;5.57;;;;;;;;;;5037566;28;20033;-77
2022/03/09 12:26:59;;;;;;;5.97;4.80;;;;;;;;;;5033008;28;20801;-77
2022/03/09 12:29:29;;;;;;;12.77;4.80;;;;;;;;;;5031488;28;20030;-77
2022/03/09 12:32:07;;;;;;;6.07;5.13;;;;;;;;;;5037994;28;20522;-77
2022/03/09 12:34:35;;;;;;;6.03;4.00;;;;;;;;;;5037296;28;20040;-76
2022/03/09 12:37:01;;;;;;;8.23;4.68;;;;;;;;;;5036876;28;20026;-77
2022/03/09 12:39:27;;;;;;;6.10;5.10;;;;;;;;;;5036035;28;20021;-77
2022/03/09 12:41:55;;;;;;;8.93;5.05;;;;;;;;;;5032201;28;20461;-77
2022/03/09 12:44:22;;;;;;;34.60;18.83;;;;;;;;;;5038178;28;20036;-77
2022/03/09 12:46:50;;;;;;;8.38;5.40;;;;;;;;;;5036436;28;20055;-77
2022/03/09 12:49:20;;;;;;;12.07;8.13;;;;;;;;;;5036343;28;20040;-77
2022/03/09 12:51:56;;;;;;;11.43;6.50;;;;;;;;;;5035492;28;20025;-76
2022/03/09 12:54:34;;;;;;;8.15;5.60;;;;;;;;;;5035164;28;20029;-77
2022/03/09 12:57:07;;;;;;;10.75;6.80;;;;;;;;;;5017172;28;20030;-77
2022/03/09 12:59:33;;;;;;;8.65;5.72;;;;;;;;;;5034184;28;20022;-77
2022/03/09 13:02:00;;;;;;;8.30;6.18;;;;;;;;;;5046574;28;20090;-77
2022/03/09 13:04:26;;;;;;;14.32;6.72;;;;;;;;;;5039133;28;20524;-77
2022/03/09 13:06:55;;;;;;;17.80;10.02;;;;;;;;;;5036259;28;20025;-76
2022/03/09 13:09:22;;;;;;;10.57;7.10;;;;;;;;;;5035381;28;20028;-76
2022/03/09 13:11:49;;;;;;;15.27;7.90;;;;;;;;;;5030810;28;20018;-77
2022/03/09 13:14:17;;;;;;;15.40;7.40;;;;;;;;;;5038132;28;20524;-76
2022/03/09 13:16:44;;;;;;;11.70;7.28;;;;;;;;;;5035756;28;20017;-77
2022/03/09 13:19:11;;;;;;;14.43;8.13;;;;;;;;;;5036271;28;20402;-76
2022/03/09 13:21:38;;;;;;;11.85;8.73;;;;;;;;;;5036235;28;20440;-77
2022/03/09 13:24:05;;;;;;;10.77;7.45;;;;;;;;;;5033219;28;20026;-77
2022/03/09 13:26:42;;;;;;;12.35;7.95;;;;;;;;;;5034649;28;20083;-77
2022/03/09 13:29:16;;;;;;;12.55;8.13;;;;;;;;;;5036542;28;20386;-77
2022/03/09 13:31:42;;;;;;;16.92;8.82;;;;;;;;;;5035280;28;20147;-77
2022/03/09 13:34:17;;;;;;;12.27;8.00;;;;;;;;;;5034372;28;20028;-77
2022/03/09 13:36:44;;;;;;;13.38;8.75;;;;;;;;;;5034536;28;20025;-77
2022/03/09 13:39:12;;;;;;;12.50;8.93;;;;;;;;;;5033345;28;20074;-77
2022/03/09 13:41:40;;;;;;;10.65;8.02;;;;;;;;;;5032455;28;20051;-77
2022/03/09 13:44:26;;;;;;;10.77;8.00;;;;;;;;;;5037547;28;20503;-76
2022/03/09 13:47:05;;;;;;;12.40;8.00;;;;;;;;;;5034899;28;20079;-77
2022/03/09 13:49:42;;;;;;;16.27;8.90;;;;;;;;;;5035061;28;20028;-77
2022/03/09 13:52:27;;;;;;;13.13;8.00;;;;;;;;;;5035426;28;20025;-77
2022/03/09 13:54:54;;;;;;;13.13;7.93;;;;;;;;;;5031415;28;20013;-77
2022/03/09 13:57:37;;;;;;;20.10;8.50;;;;;;;;;;5033439;28;20498;-76
2022/03/09 14:00:09;;;;;;;11.75;7.68;;;;;;;;;;5017878;28;20401;-77
2022/03/09 14:02:36;;;;;;;12.02;7.82;;;;;;;;;;5033482;28;20021;-77
2022/03/09 14:05:02;;;;;;;13.30;7.75;;;;;;;;;;5035492;28;20029;-77
2022/03/09 14:07:39;;;;;;;10.60;6.65;;;;;;;;;;5033754;28;20445;-77
2022/03/09 14:10:13;;;;;;;11.50;7.20;;;;;;;;;;5035244;28;20039;-77
2022/03/09 14:12:40;;;;;;;11.15;6.78;;;;;;;;;;5039221;28;20036;-77
2022/03/09 14:15:07;;;;;;;12.07;8.50;;;;;;;;;;5031835;28;20035;-77
2022/03/09 14:17:34;;;;;;;10.23;7.00;;;;;;;;;;5033136;28;20040;-77
2022/03/09 14:20:01;;;;;;;12.48;7.95;;;;;;;;;;5036193;28;20047;-77
2022/03/09 14:22:37;;;;;;;17.67;8.50;;;;;;;;;;5034999;28;20490;-77
2022/03/09 14:25:04;;;;;;;11.32;8.15;;;;;;;;;;5034579;28;20490;-77
2022/03/09 14:27:30;;;;;;;15.50;9.93;;;;;;;;;;5033564;28;20502;-77
2022/03/09 14:29:57;;;;;;;12.35;9.05;;;;;;;;;;5030951;28;20022;-77